Time;durP1;ratioP1;P1;durP2;ratioP2;P2;SDS_P1;SDS_P2;PMS_P1;PMS_P2;Temp;Humidity;BMP_temperature;BMP_pressure;BME280_temperature;BME280_humidity;BME280_pressure;Samples;Min_cycle;Max_cycle;Signal;HPM_P1;HPM_P2
2022/09/07 00:03:27;;;;;;;6.32;4.00;;;;;;;20.03;59.46;99958.72;7554719;33;40086;-71
2022/09/07 00:07:43;;;;;;;8.23;3.85;;;;;;;19.95;59.28;99965.09;7554538;33;37899;-71
2022/09/07 00:11:59;;;;;;;5.07;3.78;;;;;;;20.04;58.41;99960.31;7551185;33;37252;-71
2022/09/07 00:16:22;;;;;;;5.50;3.90;;;;;;;20.26;57.42;99962.03;7529079;33;40818;-72
2022/09/07 00:20:38;;;;;;;6.60;4.10;;;;;;;20.10;57.77;99953.47;7529061;33;39774;-72
2022/09/07 00:24:55;;;;;;;10.20;4.55;;;;;;;20.02;58.29;99954.31;7515603;33;37853;-72
2022/09/07 00:29:11;;;;;;;8.57;3.90;;;;;;;19.81;59.01;99952.25;7528915;33;37982;-72
2022/09/07 00:33:27;;;;;;;7.43;4.40;;;;;;;20.08;58.15;99945.50;7528902;33;39433;-72
2022/09/07 00:37:43;;;;;;;7.55;4.28;;;;;;;19.61;59.73;99947.41;7528385;33;41051;-72
2022/09/07 00:42:00;;;;;;;5.03;4.15;;;;;;;19.49;60.16;99942.56;7552758;33;37955;-72
2022/09/07 00:46:19;;;;;;;5.55;4.30;;;;;;;19.62;59.54;99938.78;7554244;33;36924;-72
2022/09/07 00:50:52;;;;;;;7.10;3.90;;;;;;;19.75;59.15;99937.00;7554152;33;39410;-72
2022/09/07 00:55:12;;;;;;;9.88;4.45;;;;;;;19.70;59.79;99942.69;7553093;33;40646;-71
2022/09/07 00:59:31;;;;;;;7.80;4.55;;;;;;;19.55;60.63;99938.47;7552980;33;38766;-71
2022/09/07 01:03:49;;;;;;;9.68;5.32;;;;;;;19.70;60.50;99937.16;7553166;33;36087;-72
2022/09/07 01:08:06;;;;;;;8.43;5.10;;;;;;;19.80;60.01;99927.69;7554074;33;38588;-72
2022/09/07 01:12:22;;;;;;;7.85;4.95;;;;;;;19.82;59.68;99928.19;7552596;33;40739;-71
2022/09/07 01:17:00;;;;;;;8.57;4.80;;;;;;;19.72;59.98;99937.63;7553707;33;38799;-72
2022/09/07 01:21:19;;;;;;;5.95;4.40;;;;;;;19.62;59.63;99929.69;7553611;33;36000;-72
2022/09/07 01:25:56;;;;;;;6.90;4.35;;;;;;;19.50;59.75;99922.84;7553526;33;39982;-72
2022/09/07 01:30:20;;;;;;;6.62;4.45;;;;;;;19.49;59.45;99929.53;7552880;33;39715;-72
2022/09/07 01:34:36;;;;;;;8.48;4.85;;;;;;;19.64;58.88;99924.63;7552449;33;39143;-71
2022/09/07 01:39:11;;;;;;;6.20;4.45;;;;;;;19.51;59.54;99921.72;7552045;33;37181;-72
2022/09/07 01:43:45;;;;;;;9.95;4.85;;;;;;;19.26;60.48;99923.38;7553032;33;39116;-72
2022/09/07 01:48:06;;;;;;;7.45;4.47;;;;;;;19.56;59.08;99922.69;7553117;33;39999;-72
2022/09/07 01:52:35;;;;;;;7.37;4.47;;;;;;;19.20;60.24;99921.16;7553021;33;38012;-72
2022/09/07 01:56:55;;;;;;;7.40;4.90;;;;;;;19.38;59.70;99903.38;7552499;33;37942;-72
2022/09/07 02:01:22;;;;;;;8.98;5.00;;;;;;;19.29;60.70;99902.59;7552889;33;39545;-72
2022/09/07 02:06:03;;;;;;;8.57;4.78;;;;;;;19.16;61.59;99903.56;7551599;33;40759;-71
2022/09/07 02:10:31;;;;;;;11.25;4.87;;;;;;;19.35;60.83;99903.22;7551429;33;38800;-71
2022/09/07 02:14:50;;;;;;;7.35;4.97;;;;;;;19.20;61.15;99904.56;7555037;33;37036;-72
2022/09/07 02:19:12;;;;;;;7.22;4.75;;;;;;;19.16;61.22;99903.56;7554857;33;39366;-72
2022/09/07 02:23:31;;;;;;;5.95;4.32;;;;;;;19.21;60.80;99900.63;7554072;33;39987;-72
2022/09/07 02:27:53;;;;;;;6.05;3.97;;;;;;;19.10;60.55;99902.94;7554511;33;37436;-71
2022/09/07 02:32:09;;;;;;;8.48;4.75;;;;;;;19.19;60.22;99891.88;7554737;33;37086;-72
2022/09/07 02:36:28;;;;;;;8.45;4.68;;;;;;;19.20;60.26;99899.84;7555658;33;39426;-72
2022/09/07 02:40:51;;;;;;;5.57;3.75;;;;;;;19.25;60.38;99896.09;7554222;33;39729;-71
2022/09/07 02:45:09;;;;;;;6.07;4.32;;;;;;;19.12;60.47;99887.63;7555312;33;38686;-72
2022/09/07 02:49:34;;;;;;;8.93;4.72;;;;;;;18.87;61.37;99885.72;7555293;33;38022;-71
2022/09/07 02:54:21;;;;;;;8.40;5.30;;;;;;;18.90;61.49;99896.09;7555615;33;39104;-72
2022/09/07 02:58:43;;;;;;;9.48;4.90;;;;;;;19.03;60.90;99886.84;7555429;33;40919;-72
2022/09/07 03:03:08;;;;;;;8.38;5.15;;;;;;;18.69;62.19;99885.66;7555187;33;37969;-71
2022/09/07 03:07:32;;;;;;;7.78;4.78;;;;;;;18.71;62.15;99883.41;7555318;33;37221;-72
2022/09/07 03:11:51;;;;;;;9.55;4.70;;;;;;;18.69;62.21;99882.91;7555228;33;39317;-72
2022/09/07 03:16:12;;;;;;;9.13;5.07;;;;;;;18.80;61.49;99871.53;7555257;33;40839;-71
2022/09/07 03:20:28;;;;;;;8.10;4.82;;;;;;;18.88;61.14;99881.81;7554095;33;37783;-71
2022/09/07 03:24:44;;;;;;;8.40;4.53;;;;;;;18.85;61.40;99887.97;7554338;33;36739;-72
2022/09/07 03:29:00;;;;;;;6.82;4.65;;;;;;;19.08;59.97;99880.34;7555099;33;39259;-72
2022/09/07 03:33:16;;;;;;;8.05;4.87;;;;;;;18.94;60.23;99884.09;7555075;33;40771;-72
2022/09/07 03:37:35;;;;;;;7.82;4.57;;;;;;;18.85;60.58;99891.56;7554754;33;37874;-72
2022/09/07 03:41:51;;;;;;;9.10;4.53;;;;;;;18.80;60.68;99896.41;7554289;33;37034;-72
2022/09/07 03:46:09;;;;;;;6.90;4.57;;;;;;;18.88;60.49;99892.88;7554795;33;39992;-72
2022/09/07 03:50:25;;;;;;;9.15;5.30;;;;;;;18.88;60.70;99898.38;7554849;33;40023;-72
2022/09/07 03:54:41;;;;;;;7.00;4.85;;;;;;;18.85;60.84;99890.75;7554788;33;37940;-71
2022/09/07 03:58:57;;;;;;;9.68;4.65;;;;;;;18.66;61.58;99891.88;7554910;33;37008;-73
2022/09/07 04:03:13;;;;;;;8.00;4.87;;;;;;;18.74;61.10;99891.03;7554086;33;39336;-72
2022/09/07 04:07:30;;;;;;;8.23;4.70;;;;;;;18.57;61.38;99894.63;7553987;33;40767;-73
2022/09/07 04:11:46;;;;;;;9.52;5.07;;;;;;;18.79;61.41;99895.59;7554549;33;38637;-71
2022/09/07 04:16:18;;;;;;;8.68;4.30;;;;;;;18.57;61.89;99902.06;7554716;33;37851;-71
2022/09/07 04:20:34;;;;;;;5.80;4.63;;;;;;;18.56;61.75;99912.31;7554767;33;39452;-72
2022/09/07 04:24:50;;;;;;;7.57;5.07;;;;;;;18.64;61.14;99913.44;7554438;33;39839;-71
2022/09/07 04:29:08;;;;;;;7.37;4.35;;;;;;;18.43;61.69;99915.19;7554356;33;37815;-71
2022/09/07 04:33:24;;;;;;;7.18;4.60;;;;;;;18.46;62.03;99911.81;7554169;33;38092;-72
2022/09/07 04:37:40;;;;;;;8.15;5.10;;;;;;;18.51;62.50;99911.66;7554209;33;40680;-71
2022/09/07 04:41:56;;;;;;;6.85;4.45;;;;;;;18.64;62.39;99916.19;7553863;33;39579;-71
2022/09/07 04:46:21;;;;;;;12.13;5.53;;;;;;;18.85;62.00;99901.78;7554084;33;38627;-72
2022/09/07 04:50:37;;;;;;;12.73;4.87;;;;;;;18.76;62.55;99908.13;7554035;33;37104;-72
2022/09/07 04:54:53;;;;;;;8.15;4.65;;;;;;;18.47;63.52;99921.69;7554101;33;40163;-72
2022/09/07 04:59:10;;;;;;;7.10;4.80;;;;;;;18.62;63.03;99914.91;7553811;33;39885;-73
2022/09/07 05:03:26;;;;;;;8.10;5.32;;;;;;;18.67;63.07;99904.50;7553824;33;37968;-71
2022/09/07 05:07:43;;;;;;;10.25;5.10;;;;;;;18.97;62.33;99901.16;7553380;33;37114;-71
2022/09/07 05:11:59;;;;;;;10.43;5.60;;;;;;;19.11;61.99;99913.66;7553485;33;40021;-71
2022/09/07 05:16:18;;;;;;;8.80;4.80;;;;;;;19.02;62.30;99923.09;7553315;33;39897;-72
2022/09/07 05:20:34;;;;;;;9.40;5.00;;;;;;;19.00;62.31;99930.88;7553730;33;37904;-71
2022/09/07 05:24:51;;;;;;;6.45;4.28;;;;;;;19.05;62.14;99925.22;7553548;33;35760;-73
2022/09/07 05:29:07;;;;;;;7.15;4.75;;;;;;;19.19;61.91;99930.56;7552252;33;39473;-72
2022/09/07 05:33:47;;;;;;;8.70;4.70;;;;;;;19.42;61.33;99920.94;7553110;33;41211;-72
2022/09/07 05:38:24;;;;;;;10.73;4.75;;;;;;;19.55;61.21;99932.94;7551770;33;38197;-71
2022/09/07 05:42:40;;;;;;;7.12;4.70;;;;;;;19.51;61.82;99934.75;7552759;33;37133;-72
2022/09/07 05:46:57;;;;;;;8.15;4.70;;;;;;;19.71;61.57;99927.69;7554255;33;40050;-72
2022/09/07 05:51:13;;;;;;;7.97;4.72;;;;;;;19.91;61.03;99933.69;7556310;33;39978;-78
2022/09/07 05:55:33;;;;;;;6.85;4.22;;;;;;;19.91;61.72;99940.03;7554655;33;38735;-77
2022/09/07 05:59:49;;;;;;;8.20;4.35;;;;;;;20.19;61.25;99923.78;7556044;33;37416;-73
2022/09/07 06:04:05;;;;;;;8.18;4.45;;;;;;;20.46;59.48;99930.00;7563496;33;39485;-73
2022/09/07 06:08:21;;;;;;;7.37;4.55;;;;;;;20.92;58.34;99928.25;7559896;33;40060;-73
2022/09/07 06:12:37;;;;;;;5.53;4.25;;;;;;;20.99;57.26;99934.06;7581693;33;38043;-73
2022/09/07 06:16:53;;;;;;;8.00;4.53;;;;;;;21.28;56.09;99932.34;7581808;33;37174;-72
2022/09/07 06:21:15;;;;;;;6.45;4.25;;;;;;;21.42;55.64;99922.91;7581739;33;40359;-73
2022/09/07 06:25:32;;;;;;;6.83;4.07;;;;;;;21.55;55.38;99916.28;7561874;33;39916;-77
2022/09/07 06:29:48;;;;;;;7.03;4.60;;;;;;;21.79;54.27;99914.72;7555310;33;37963;-78
2022/09/07 06:34:04;;;;;;;7.97;4.72;;;;;;;21.81;54.43;99909.66;7555783;33;36867;-77
2022/09/07 06:38:20;;;;;;;12.37;6.87;;;;;;;21.88;53.45;99915.44;7554565;33;39974;-77
2022/09/07 06:42:37;;;;;;;11.15;5.20;;;;;;;22.00;52.55;99917.41;7555552;33;39684;-77
2022/09/07 06:46:53;;;;;;;9.90;6.95;;;;;;;22.21;51.78;99914.53;7555616;33;38118;-72
2022/09/07 06:51:18;;;;;;;;;;;;;;;22.35;51.63;99912.22;7556050;33;36459;-72
2022/09/07 06:55:41;;;;;;;8.25;3.83;;;;;;;22.51;51.09;99901.22;7581606;33;39248;-72
2022/09/07 06:59:57;;;;;;;12.07;7.12;;;;;;;22.85;49.92;99899.88;7580341;33;40011;-73
2022/09/07 07:04:13;;;;;;;8.98;4.85;;;;;;;22.78;50.04;99899.66;7581110;33;38769;-72
2022/09/07 07:08:30;;;;;;;5.68;4.03;;;;;;;22.84;49.62;99898.25;7581172;33;37105;-73
2022/09/07 07:12:46;;;;;;;9.43;4.00;;;;;;;23.19;48.84;99900.47;7581098;33;39921;-73
2022/09/07 07:17:02;;;;;;;8.35;3.78;;;;;;;22.95;49.04;99894.97;7580938;33;40616;-72
2022/09/07 07:21:18;;;;;;;7.43;4.03;;;;;;;23.34;48.49;99898.91;7580820;33;37738;-73
2022/09/07 07:25:35;;;;;;;9.07;4.07;;;;;;;23.22;48.93;99908.09;7580782;33;37029;-73
2022/09/07 07:29:54;;;;;;;6.35;4.18;;;;;;;23.39;48.26;99906.19;7580662;33;40131;-73
2022/09/07 07:34:10;;;;;;;5.00;3.62;;;;;;;23.02;48.43;99909.06;7580611;33;40076;-73
2022/09/07 07:38:29;;;;;;;6.32;4.12;;;;;;;23.76;47.68;99908.75;7580439;33;37715;-74
2022/09/07 07:43:05;;;;;;;8.35;3.90;;;;;;;23.84;46.97;99898.62;7569453;33;37366;-73
2022/09/07 07:47:22;;;;;;;7.90;3.83;;;;;;;23.93;46.82;99908.41;7580400;33;39015;-73
2022/09/07 07:51:38;;;;;;;6.78;3.70;;;;;;;24.43;46.97;99913.59;7580481;33;39864;-73
2022/09/07 07:56:15;;;;;;;9.18;4.28;;;;;;;24.44;45.85;99909.59;7579821;33;39060;-73
2022/09/07 08:00:31;;;;;;;6.55;4.05;;;;;;;24.69;46.04;99902.66;7580342;33;37199;-73
2022/09/07 08:05:07;;;;;;;6.03;3.92;;;;;;;25.15;44.51;99902.03;7579831;33;40556;-73
2022/09/07 08:09:24;;;;;;;9.35;3.83;;;;;;;25.24;45.02;99899.81;7579727;33;40212;-73
2022/09/07 08:13:42;;;;;;;8.07;3.65;;;;;;;25.40;43.81;99898.94;7580063;33;38719;-73
2022/09/07 08:17:58;;;;;;;8.27;4.30;;;;;;;25.56;44.00;99901.63;7580179;33;37853;-73
2022/09/07 08:22:14;;;;;;;25.20;4.95;;;;;;;25.59;44.12;99896.09;7580551;33;40089;-73
2022/09/07 08:26:30;;;;;;;4.03;3.12;;;;;;;25.38;44.45;99890.94;7580111;33;40118;-73
2022/09/07 08:30:46;;;;;;;5.55;3.60;;;;;;;25.91;43.71;99883.91;7579556;33;37924;-73
2022/09/07 08:35:03;;;;;;;5.00;3.58;;;;;;;26.24;42.75;99872.06;7579045;33;37849;-73
2022/09/07 08:39:19;;;;;;;5.47;3.10;;;;;;;26.10;44.46;99883.03;7579817;33;40173;-73
2022/09/07 08:43:53;;;;;;;5.95;3.58;;;;;;;26.71;43.00;99876.34;7580043;33;40070;-77
2022/09/07 08:48:13;;;;;;;7.28;3.58;;;;;;;26.70;41.48;99876.72;7579697;33;37946;-73
2022/09/07 08:52:47;;;;;;;6.62;3.55;;;;;;;27.09;41.12;99868.03;7578932;33;38370;-73
2022/09/07 08:57:03;;;;;;;6.65;3.53;;;;;;;27.28;41.03;99869.84;7580214;33;39418;-73
2022/09/07 09:01:39;;;;;;;6.75;3.78;;;;;;;27.27;40.84;99869.03;7579025;33;41018;-73
2022/09/07 09:06:08;;;;;;;6.78;3.70;;;;;;;27.38;40.78;99868.38;7579571;33;38004;-73
2022/09/07 09:10:39;;;;;;;5.87;3.58;;;;;;;27.47;40.27;99868.84;7579930;33;37087;-73
2022/09/07 09:15:16;;;;;;;7.37;3.70;;;;;;;27.73;40.47;99868.72;7579748;33;40155;-73
2022/09/07 09:20:23;;;;;;;11.82;4.05;;;;;;;27.59;40.37;99860.16;7579639;33;39904;-74
2022/09/07 09:24:44;;;;;;;5.05;3.50;;;;;;;27.49;39.25;99861.69;7448399;33;38438;-73
2022/09/07 09:29:14;;;;;;;8.25;3.47;;;;;;;27.99;38.24;99858.53;7520079;33;37455;-74
2022/09/07 09:33:30;;;;;;;10.88;3.78;;;;;;;28.26;39.24;99861.13;7573130;33;201323;-73
2022/09/07 09:37:46;;;;;;;6.90;3.60;;;;;;;28.38;36.99;99855.19;7578003;33;39927;-73
2022/09/07 09:42:13;;;;;;;4.40;3.28;;;;;;;28.53;37.79;99855.25;7572333;33;38747;-72
2022/09/07 09:46:35;;;;;;;5.30;3.50;;;;;;;28.98;36.91;99850.31;7578959;33;37862;-73
2022/09/07 09:50:54;;;;;;;4.50;3.22;;;;;;;29.20;36.53;99845.56;7557123;33;39434;-74
2022/09/07 09:55:33;;;;;;;4.62;3.17;;;;;;;29.85;35.60;99845.66;7551630;33;41036;-73
2022/09/07 10:00:01;;;;;;;6.35;3.50;;;;;;;29.89;34.70;99836.03;7551209;33;37970;-73
2022/09/07 10:04:33;;;;;;;4.78;3.40;;;;;;;30.34;34.01;99839.19;7552837;33;37175;-73
2022/09/07 10:09:00;;;;;;;7.95;3.50;;;;;;;30.34;33.29;99833.56;7564429;33;39234;-73
2022/09/07 10:13:31;;;;;;;4.80;3.22;;;;;;;30.24;33.96;99828.75;7562945;33;39954;-73
2022/09/07 10:17:49;;;;;;;8.18;3.62;;;;;;;30.64;33.80;99835.09;7574718;33;38095;-74
2022/09/07 10:22:32;;;;;;;9.80;3.78;;;;;;;30.67;33.92;99834.28;7551322;33;37461;-75
2022/09/07 10:26:49;;;;;;;10.13;3.80;;;;;;;30.22;33.53;99830.34;7551363;33;39118;-74
2022/09/07 10:31:13;;;;;;;6.07;3.50;;;;;;;30.03;35.05;99828.78;7557823;33;40169;-74
2022/09/07 10:35:43;;;;;;;6.70;3.90;;;;;;;30.45;35.35;99829.94;7558409;33;37590;-75
2022/09/07 10:40:11;;;;;;;6.95;3.53;;;;;;;30.94;34.13;99825.31;7568493;33;37177;-73
2022/09/07 10:44:55;;;;;;;8.30;3.70;;;;;;;31.20;33.10;99820.34;7566300;33;39441;-73
2022/09/07 10:49:38;;;;;;;4.72;3.35;;;;;;;31.55;31.79;99815.72;7565389;33;40545;-74
2022/09/07 10:54:16;;;;;;;6.03;3.60;;;;;;;31.56;31.80;99815.31;7566050;33;38052;-74
2022/09/07 10:58:59;;;;;;;5.90;3.60;;;;;;;32.29;31.95;99806.97;7566839;33;37753;-75
2022/09/07 11:03:55;;;;;;;6.22;3.40;;;;;;;32.84;31.64;99805.13;7565102;33;39167;-74
2022/09/07 11:08:34;;;;;;;4.05;3.35;;;;;;;32.96;30.11;99789.63;7567046;33;40070;-74
2022/09/07 11:13:14;;;;;;;4.87;3.30;;;;;;;32.94;29.97;99793.69;7561650;33;37986;-75
2022/09/07 11:17:37;;;;;;;6.45;3.42;;;;;;;33.27;29.40;99799.69;7567303;33;36884;-74
2022/09/07 11:22:26;;;;;;;7.30;3.92;;;;;;;33.05;29.74;99799.19;7565290;33;39394;-74
2022/09/07 11:26:52;;;;;;;8.43;3.78;;;;;;;33.28;29.42;99794.84;7580303;33;38249;-74
2022/09/07 11:37:14;;;;;;;5.55;3.30;;;;;;;33.30;28.09;99784.69;7508828;33;38784;-74
2022/09/07 11:46:54;;;;;;;6.57;3.60;;;;;;;34.32;26.91;99767.59;8127888;27;41715;-72
2022/09/07 11:51:36;;;;;;;8.70;3.20;;;;;;;34.20;27.30;99759.75;7590667;32;37660;-72
2022/09/07 11:56:00;;;;;;;5.87;3.10;;;;;;;34.41;26.87;99755.72;7595766;32;36945;-72
2022/09/07 12:00:21;;;;;;;9.00;3.58;;;;;;;34.41;27.10;99755.72;7596272;32;39446;-72
2022/09/07 12:04:59;;;;;;;6.62;3.60;;;;;;;34.39;26.91;99746.84;7573006;32;40467;-72
2022/09/07 12:09:34;;;;;;;6.80;3.28;;;;;;;34.64;28.53;99745.53;7579953;33;37909;-73
2022/09/07 12:13:53;;;;;;;5.82;3.60;;;;;;;34.98;26.21;99745.16;7601187;32;37845;-71
2022/09/07 12:18:33;;;;;;;5.53;3.58;;;;;;;34.86;27.31;99735.34;7603211;32;39095;-72
2022/09/07 12:23:14;;;;;;;8.52;4.07;;;;;;;35.15;25.84;99743.94;7603024;32;40858;-71
2022/09/07 12:27:30;;;;;;;11.82;4.25;;;;;;;35.08;26.37;99746.94;7602741;32;37745;-71
2022/09/07 12:31:52;;;;;;;8.82;3.97;;;;;;;35.08;26.41;99735.63;7604874;32;36964;-72
2022/09/07 12:36:40;;;;;;;6.62;3.97;;;;;;;35.17;24.76;99737.84;7597595;32;39426;-72
2022/09/07 12:41:01;;;;;;;10.85;5.50;;;;;;;34.94;25.78;99728.25;7598075;32;40208;-74
2022/09/07 12:45:29;;;;;;;7.20;4.57;;;;;;;34.87;26.41;99731.25;7603871;32;37590;-74
2022/09/07 12:50:26;;;;;;;6.68;4.05;;;;;;;34.20;26.61;99728.63;7603275;32;37870;-74
2022/09/07 12:54:49;;;;;;;8.38;4.30;;;;;;;34.02;26.99;99718.47;7602439;32;40139;-72
2022/09/07 12:59:50;;;;;;;8.23;4.28;;;;;;;33.70;28.90;99723.94;7602846;32;41280;-74
2022/09/07 13:04:25;;;;;;;7.53;4.00;;;;;;;33.61;27.78;99721.63;7589178;32;38036;-73
2022/09/07 13:08:49;;;;;;;11.25;4.43;;;;;;;33.84;28.73;99712.34;7589879;32;36965;-73
2022/09/07 13:13:14;;;;;;;7.65;4.50;;;;;;;33.58;28.33;99711.19;7602911;32;40240;-73
2022/09/07 13:17:33;;;;;;;7.15;4.87;;;;;;;33.03;29.00;99702.00;7603886;32;40829;-73
2022/09/07 13:21:51;;;;;;;5.53;4.05;;;;;;;33.61;28.36;99696.22;7605144;32;38718;-71
2022/09/07 13:26:10;;;;;;;6.95;4.10;;;;;;;33.76;28.72;99693.94;7604445;32;36981;-72
2022/09/07 13:30:35;;;;;;;7.30;4.12;;;;;;;34.57;27.87;99675.72;7592137;32;40014;-72
2022/09/07 13:35:21;;;;;;;6.53;4.18;;;;;;;34.69;26.12;99674.22;7605232;32;39935;-72
2022/09/07 13:39:41;;;;;;;6.93;4.32;;;;;;;34.63;27.70;99679.59;7604148;32;37870;-72
2022/09/07 13:44:02;;;;;;;6.35;4.12;;;;;;;34.41;26.72;99670.81;7591427;32;37722;-72
2022/09/07 13:48:31;;;;;;;7.32;4.43;;;;;;;34.31;27.52;99669.81;7590722;32;38447;-73
2022/09/07 13:53:06;;;;;;;8.98;4.68;;;;;;;33.52;28.62;99673.37;7591930;32;39937;-73
2022/09/07 13:57:41;;;;;;;9.07;4.45;;;;;;;33.12;28.28;99674.03;7604183;32;38583;-73
2022/09/07 14:01:58;;;;;;;10.32;4.80;;;;;;;33.21;28.82;99659.41;7599375;32;37252;-71
2022/09/07 14:06:26;;;;;;;6.68;4.30;;;;;;;34.02;27.32;99653.41;7603719;32;45110;-73
2022/09/07 14:10:47;;;;;;;9.57;5.65;;;;;;;34.19;26.54;99650.66;7607239;32;39657;-73
2022/09/07 14:15:39;;;;;;;8.95;5.32;;;;;;;34.86;24.80;99647.56;7607296;32;37894;-74
2022/09/07 14:19:57;;;;;;;9.25;5.65;;;;;;;34.68;25.41;99653.59;7595274;32;37103;-73
2022/09/07 14:24:35;;;;;;;8.73;5.45;;;;;;;34.51;24.75;99641.47;7594182;32;38266;-73
2022/09/07 14:28:55;;;;;;;10.73;5.47;;;;;;;34.29;25.61;99646.84;7607006;32;40587;-72
2022/09/07 14:33:16;;;;;;;7.82;5.05;;;;;;;34.05;26.66;99646.09;7607084;32;37979;-74
2022/09/07 14:37:32;;;;;;;8.77;5.43;;;;;;;33.68;25.75;99648.88;7607213;32;37908;-74
2022/09/07 14:41:49;;;;;;;9.82;5.32;;;;;;;33.28;26.30;99645.94;7607407;32;40015;-74
2022/09/07 14:46:26;;;;;;;9.57;5.97;;;;;;;34.16;25.63;99643.81;7606569;32;40719;-74
2022/09/07 14:50:47;;;;;;;9.10;5.68;;;;;;;34.02;26.16;99650.59;7606757;32;38827;-73
2022/09/07 14:55:36;;;;;;;8.70;5.83;;;;;;;32.79;27.06;99656.00;7606343;32;38571;-74
2022/09/07 14:59:52;;;;;;;6.18;4.93;;;;;;;33.13;26.88;99644.56;7606568;32;40127;-74
2022/09/07 15:04:17;;;;;;;8.48;5.57;;;;;;;33.05;27.46;99645.94;7603295;32;39939;-74
2022/09/07 15:08:39;;;;;;;9.63;5.40;;;;;;;33.26;27.89;99642.75;7606376;32;38747;-73
2022/09/07 15:13:00;;;;;;;8.98;5.60;;;;;;;33.23;27.25;99640.78;7606919;32;37834;-73
2022/09/07 15:17:31;;;;;;;11.02;6.35;;;;;;;33.04;26.78;99644.31;7593746;32;40216;-74
2022/09/07 15:22:09;;;;;;;7.18;5.35;;;;;;;31.78;28.97;99637.59;7605746;32;40599;-73
2022/09/07 15:26:45;;;;;;;7.90;5.45;;;;;;;32.22;28.78;99651.97;7593774;32;37985;-73
2022/09/07 15:31:21;;;;;;;;;;;;;;;31.96;29.12;99645.81;7606552;32;37818;-74
2022/09/07 15:35:57;;;;;;;7.68;5.40;;;;;;;32.24;28.24;99649.53;7606286;32;40006;-72
2022/09/07 15:40:24;;;;;;;10.13;5.90;;;;;;;31.66;29.40;99650.19;7592579;32;39867;-72
2022/09/07 15:44:40;;;;;;;8.00;5.65;;;;;;;31.52;30.36;99656.78;7592526;32;38087;-72
2022/09/07 15:48:57;;;;;;;9.20;6.00;;;;;;;31.58;31.06;99654.28;7606316;32;38024;-72
2022/09/07 15:53:13;;;;;;;9.48;5.93;;;;;;;31.31;31.51;99659.78;7605739;32;39039;-73
2022/09/07 15:57:50;;;;;;;7.90;5.55;;;;;;;31.34;31.58;99667.38;7605600;32;40197;-74
2022/09/07 16:02:23;;;;;;;7.55;5.35;;;;;;;31.26;31.29;99656.19;7602021;32;38031;-73
2022/09/07 16:06:59;;;;;;;9.73;5.32;;;;;;;30.99;33.87;99656.00;7605550;32;37404;-72
2022/09/07 16:11:25;;;;;;;9.07;5.95;;;;;;;31.16;32.70;99659.09;7606166;32;39393;-73
2022/09/07 16:15:42;;;;;;;9.77;6.03;;;;;;;31.12;32.65;99658.34;7605750;32;39937;-73
2022/09/07 16:20:01;;;;;;;14.27;6.15;;;;;;;31.01;33.65;99649.97;7606144;32;39091;-73
2022/09/07 16:24:17;;;;;;;8.48;5.55;;;;;;;31.15;33.60;99657.50;7605753;32;38005;-73
2022/09/07 16:28:36;;;;;;;8.95;5.85;;;;;;;31.32;31.49;99656.56;7605860;32;39369;-71
2022/09/07 16:32:52;;;;;;;7.25;5.60;;;;;;;31.27;31.50;99648.56;7605167;32;38856;-73
2022/09/07 16:37:08;;;;;;;9.00;6.18;;;;;;;31.33;31.28;99637.63;7605718;32;37924;-71
2022/09/07 16:41:26;;;;;;;12.50;6.28;;;;;;;31.33;31.19;99640.47;7605646;32;37117;-71
2022/09/07 16:45:43;;;;;;;7.10;5.28;;;;;;;31.43;30.53;99640.34;7605260;32;39126;-70
2022/09/07 16:50:19;;;;;;;18.70;6.87;;;;;;;30.95;32.26;99638.38;7605913;32;40201;-71
2022/09/07 16:54:35;;;;;;;12.63;6.35;;;;;;;30.64;34.22;99634.56;7604721;32;38151;-73
2022/09/07 16:58:53;;;;;;;24.35;7.25;;;;;;;30.27;34.99;99636.78;7605458;32;37922;-73
2022/09/07 17:03:10;;;;;;;11.95;6.68;;;;;;;30.29;35.45;99625.91;7597464;32;39364;-73
2022/09/07 17:07:26;;;;;;;8.95;6.87;;;;;;;29.88;36.28;99615.25;7605248;32;40733;-72
2022/09/07 17:11:43;;;;;;;11.07;6.90;;;;;;;29.63;36.96;99625.75;7605177;32;38521;-72
2022/09/07 17:16:03;;;;;;;9.93;7.12;;;;;;;29.14;38.07;99617.00;7591649;32;36829;-72
2022/09/07 17:20:20;;;;;;;11.07;7.25;;;;;;;28.90;38.84;99613.00;7605247;32;39400;-72
2022/09/07 17:24:36;;;;;;;10.00;6.97;;;;;;;28.61;39.26;99619.41;7605129;32;38188;-73
2022/09/07 17:28:54;;;;;;;10.98;7.60;;;;;;;28.54;39.36;99621.34;7604268;32;37899;-73
2022/09/07 17:33:14;;;;;;;11.68;7.50;;;;;;;28.27;40.36;99621.72;7603371;32;37951;-73
2022/09/07 17:37:30;;;;;;;10.95;7.53;;;;;;;28.16;40.76;99632.06;7604826;32;40233;-73
2022/09/07 17:41:48;;;;;;;10.10;7.80;;;;;;;27.91;40.94;99632.75;7584337;32;38066;-72
2022/09/07 17:46:06;;;;;;;10.48;7.40;;;;;;;27.73;41.41;99641.06;7578350;32;37935;-72
2022/09/07 17:50:22;;;;;;;10.93;8.32;;;;;;;27.66;41.56;99647.41;7604550;32;38169;-74
2022/09/07 17:54:38;;;;;;;11.05;8.65;;;;;;;27.38;41.82;99650.06;7606642;32;40200;-71
2022/09/07 17:58:54;;;;;;;10.15;8.20;;;;;;;26.96;42.56;99660.50;7625224;32;40005;-72
2022/09/07 18:03:31;;;;;;;14.07;8.45;;;;;;;26.95;42.64;99656.88;7603265;32;38329;-72
2022/09/07 18:07:50;;;;;;;18.40;8.60;;;;;;;26.82;43.01;99672.38;7603604;32;37165;-71
2022/09/07 18:12:06;;;;;;;14.07;9.65;;;;;;;26.79;42.82;99682.31;7614727;32;39382;-71
2022/09/07 18:16:32;;;;;;;15.57;8.88;;;;;;;26.45;43.74;99677.94;7630202;32;39914;-72
2022/09/07 18:20:48;;;;;;;12.77;8.68;;;;;;;26.52;43.36;99684.41;7630098;32;38842;-71
2022/09/07 18:25:04;;;;;;;12.35;8.52;;;;;;;26.42;43.00;99690.66;7630027;32;37066;-70
2022/09/07 18:29:26;;;;;;;13.43;9.07;;;;;;;26.26;43.82;99706.84;7629825;32;39046;-69
2022/09/07 18:33:50;;;;;;;13.27;8.68;;;;;;;26.24;43.79;99696.84;7629819;32;39609;-71
2022/09/07 18:38:10;;;;;;;11.70;8.75;;;;;;;26.22;44.11;99690.84;7600269;32;39283;-70
2022/09/07 18:42:27;;;;;;;13.10;8.98;;;;;;;25.89;45.03;99685.19;7600400;32;37230;-73
2022/09/07 18:46:43;;;;;;;12.88;9.10;;;;;;;25.53;45.92;99690.28;7600017;32;39354;-72
2022/09/07 18:51:00;;;;;;;12.57;8.88;;;;;;;25.61;45.71;99687.22;7599784;32;40717;-71
2022/09/07 18:55:16;;;;;;;11.68;8.93;;;;;;;25.59;46.26;99691.53;7605671;32;38928;-70
2022/09/07 18:59:32;;;;;;;12.52;9.13;;;;;;;25.39;46.99;99693.63;7614605;32;37064;-70
2022/09/07 19:03:53;;;;;;;11.32;8.57;;;;;;;25.36;46.91;99697.97;7605387;32;39248;-70
2022/09/07 19:08:09;;;;;;;13.57;8.15;;;;;;;25.21;47.59;99699.69;7606389;32;42059;-71
2022/09/07 19:12:26;;;;;;;9.73;7.95;;;;;;;25.25;47.42;99695.03;7610017;32;37923;-70
2022/09/07 19:16:43;;;;;;;11.27;8.95;;;;;;;25.27;47.05;99680.72;7606812;32;37217;-71
2022/09/07 19:21:04;;;;;;;11.32;8.95;;;;;;;25.24;46.75;99684.22;7605892;32;40610;-71
2022/09/07 19:25:22;;;;;;;11.25;8.77;;;;;;;25.24;47.15;99695.38;7605725;32;39764;-71
2022/09/07 19:29:38;;;;;;;11.82;9.23;;;;;;;25.03;48.19;99696.63;7605435;32;37891;-71
2022/09/07 19:34:01;;;;;;;11.60;8.88;;;;;;;24.98;48.16;99693.34;7605874;32;37351;-70
2022/09/07 19:38:19;;;;;;;16.92;8.68;;;;;;;24.72;49.13;99703.22;7605640;32;39555;-71
2022/09/07 19:42:35;;;;;;;12.37;9.93;;;;;;;24.79;48.57;99692.22;7605437;32;39593;-70
2022/09/07 19:46:51;;;;;;;14.98;9.82;;;;;;;24.91;48.38;99688.44;7605199;32;38571;-71
2022/09/07 19:51:09;;;;;;;13.55;9.20;;;;;;;24.55;49.69;99682.19;7606097;32;37758;-71
2022/09/07 19:55:26;;;;;;;12.63;9.63;;;;;;;24.65;49.46;99678.81;7605126;32;38424;-70
2022/09/07 19:59:44;;;;;;;13.15;9.55;;;;;;;24.45;49.80;99677.19;7604839;32;40852;-71
2022/09/07 20:04:03;;;;;;;14.85;9.85;;;;;;;24.35;49.64;99673.84;7604530;32;37084;-71
2022/09/07 20:08:20;;;;;;;13.27;8.95;;;;;;;24.22;50.19;99675.16;7606191;32;36730;-70
2022/09/07 20:12:36;;;;;;;12.27;9.45;;;;;;;24.21;50.06;99679.13;7603485;32;39150;-71
2022/09/07 20:16:52;;;;;;;14.43;10.00;;;;;;;24.28;49.77;99673.69;7605015;32;40306;-71
2022/09/07 20:21:17;;;;;;;13.73;9.73;;;;;;;24.12;50.31;99675.75;7604763;32;38356;-71
2022/09/07 20:25:33;;;;;;;15.07;9.38;;;;;;;24.32;49.87;99674.56;7602810;32;36972;-72
2022/09/07 20:29:50;;;;;;;13.00;8.80;;;;;;;24.20;50.35;99671.94;7604173;32;39387;-71
2022/09/07 20:34:09;;;;;;;15.48;9.25;;;;;;;24.15;50.62;99672.25;7604305;32;40021;-72
2022/09/07 20:38:25;;;;;;;14.30;9.45;;;;;;;24.14;50.51;99670.63;7604824;32;38699;-69
2022/09/07 20:42:41;;;;;;;12.20;9.27;;;;;;;23.99;51.00;99677.84;7604584;32;38322;-71
2022/09/07 20:46:58;;;;;;;14.07;9.57;;;;;;;23.95;51.11;99672.22;7604699;32;40036;-71